createdAt,value
2019-04-01T00:00:18.338Z,0.00
2019-04-01T00:01:18.297Z,0.00
2019-04-01T00:02:18.280Z,0.00
2019-04-01T00:03:18.268Z,0.00
2019-04-01T00:04:18.253Z,0.00
2019-04-01T00:05:18.273Z,0.00
2019-04-01T00:06:18.247Z,0.00
2019-04-01T00:07:18.221Z,0.00
2019-04-01T00:08:18.207Z,0.00
2019-04-01T00:09:18.285Z,0.00
2019-04-01T00:10:18.186Z,0.00
2019-04-01T00:11:18.218Z,0.00
2019-04-01T00:12:18.164Z,0.00
2019-04-01T00:13:18.157Z,0.00
2019-04-01T00:14:18.157Z,0.00
2019-04-01T00:15:18.143Z,0.00
2019-04-01T00:16:18.117Z,0.00
2019-04-01T00:17:18.128Z,0.00
2019-04-01T00:18:18.108Z,0.00
2019-04-01T00:19:18.096Z,0.00
2019-04-01T00:20:18.079Z,0.00
2019-04-01T00:21:18.112Z,0.00
2019-04-01T00:22:18.055Z,0.00
2019-04-01T00:23:18.041Z,0.00
2019-04-01T00:24:18.039Z,0.00
2019-04-01T00:25:18.046Z,0.00
2019-04-01T00:26:18.019Z,0.00
2019-04-01T00:27:18.004Z,0.00
2019-04-01T00:28:18.003Z,0.00
2019-04-01T00:29:17.985Z,0.00
2019-04-01T00:30:17.967Z,0.00
2019-04-01T00:31:18.004Z,0.00
2019-04-01T00:32:17.953Z,0.00
2019-04-01T00:33:17.945Z,0.00
2019-04-01T00:34:17.921Z,0.00
2019-04-01T00:35:17.909Z,0.00
2019-04-01T00:36:17.901Z,0.00
2019-04-01T00:37:17.924Z,0.00
2019-04-01T00:38:17.880Z,0.00
2019-04-01T00:39:17.875Z,0.00
2019-04-01T00:40:17.883Z,0.00
2019-04-01T00:41:17.849Z,0.00
2019-04-01T00:42:17.838Z,0.00
2019-04-01T00:43:17.856Z,0.00
2019-04-01T00:44:17.806Z,0.00
2019-04-01T00:45:17.800Z,0.00
2019-04-01T00:46:17.805Z,0.00
2019-04-01T00:47:17.787Z,0.00
2019-04-01T00:48:17.773Z,0.00
2019-04-01T00:49:17.800Z,0.00
2019-04-01T00:50:17.756Z,0.00
2019-04-01T00:51:17.757Z,0.00
2019-04-01T00:52:17.740Z,0.00
2019-04-01T00:53:18.238Z,0.00
2019-04-01T00:54:17.706Z,0.00
2019-04-01T00:55:17.708Z,0.00
2019-04-01T00:56:17.701Z,0.00
2019-04-01T00:57:17.695Z,0.00
2019-04-01T00:58:17.666Z,0.00
2019-04-01T00:59:17.657Z,0.00
2019-04-01T01:00:17.682Z,0.00
2019-04-01T01:01:17.630Z,0.00
2019-04-01T01:02:17.616Z,0.00
2019-04-01T01:03:17.595Z,0.00
2019-04-01T01:04:17.617Z,0.00
2019-04-01T01:05:17.587Z,0.00
2019-04-01T01:06:17.609Z,0.00
2019-04-01T01:07:17.596Z,0.00
2019-04-01T01:08:17.546Z,0.00
2019-04-01T01:09:17.548Z,0.00
2019-04-01T01:10:17.639Z,0.00
2019-04-01T01:11:17.531Z,0.00
2019-04-01T01:12:17.550Z,0.00
2019-04-01T01:13:17.507Z,0.00
2019-04-01T01:14:17.506Z,0.00
2019-04-01T01:15:17.479Z,0.00
2019-04-01T01:16:17.464Z,0.00
2019-04-01T01:17:17.454Z,0.00
2019-04-01T01:18:17.468Z,0.00
2019-04-01T01:19:17.466Z,0.00
2019-04-01T01:20:17.422Z,0.00
2019-04-01T01:21:17.411Z,0.00
2019-04-01T01:22:17.409Z,0.00
2019-04-01T01:23:17.393Z,0.00
2019-04-01T01:24:17.389Z,0.00
2019-04-01T01:25:17.423Z,0.00
2019-04-01T01:26:17.357Z,0.00
2019-04-01T01:27:17.341Z,0.00
2019-04-01T01:28:17.334Z,0.00
2019-04-01T01:29:17.343Z,0.00
2019-04-01T01:30:17.333Z,0.00
2019-04-01T01:31:17.314Z,0.00
2019-04-01T01:32:17.295Z,0.00
2019-04-01T01:33:17.349Z,0.00
2019-04-01T01:34:17.288Z,0.00
2019-04-01T01:35:17.283Z,0.00
2019-04-01T01:36:17.255Z,0.00
2019-04-01T01:37:17.248Z,0.00
2019-04-01T01:38:17.221Z,0.00
2019-04-01T01:39:17.225Z,0.00
2019-04-01T01:40:17.208Z,0.00
2019-04-01T01:41:17.229Z,0.00
2019-04-01T01:42:17.189Z,0.00
2019-04-01T01:43:17.178Z,0.00
2019-04-01T01:44:17.170Z,0.00
2019-04-01T01:45:17.155Z,0.00
2019-04-01T01:46:17.132Z,0.00
2019-04-01T01:47:17.148Z,0.00
2019-04-01T01:48:17.119Z,0.00
2019-04-01T01:49:17.110Z,0.00
2019-04-01T01:50:17.119Z,0.00
2019-04-01T01:51:17.091Z,0.00
2019-04-01T01:52:17.073Z,0.00
2019-04-01T01:53:17.103Z,0.00
2019-04-01T01:54:17.060Z,0.00
2019-04-01T01:55:17.056Z,0.00
2019-04-01T01:56:17.082Z,0.00
2019-04-01T01:57:17.026Z,0.00
2019-04-01T01:58:17.043Z,0.00
2019-04-01T01:59:16.989Z,0.00
2019-04-01T02:00:16.989Z,0.00
2019-04-01T02:01:16.972Z,0.00
2019-04-01T02:02:16.975Z,0.00
2019-04-01T02:03:16.961Z,0.00
2019-04-01T02:04:16.976Z,0.00
2019-04-01T02:05:16.975Z,0.00
2019-04-01T02:06:16.936Z,0.00
2019-04-01T02:07:16.940Z,0.00
2019-04-01T02:08:16.905Z,0.00
2019-04-01T02:09:16.896Z,0.00
2019-04-01T02:10:16.876Z,0.00
2019-04-01T02:11:16.865Z,0.00
2019-04-01T02:12:16.864Z,0.00
2019-04-01T02:13:16.866Z,0.00
2019-04-01T02:14:16.842Z,0.00
2019-04-01T02:15:16.847Z,0.00
2019-04-01T02:16:16.842Z,0.00
2019-04-01T02:17:16.809Z,0.00
2019-04-01T02:18:16.791Z,0.00
2019-04-01T02:19:16.792Z,0.00
2019-04-01T02:20:16.777Z,0.00
2019-04-01T02:21:16.753Z,0.00
2019-04-01T02:22:16.750Z,0.00
2019-04-01T02:23:16.771Z,0.00
2019-04-01T02:24:16.716Z,0.00
2019-04-01T02:25:16.709Z,0.00
2019-04-01T02:26:16.703Z,0.00
2019-04-01T02:27:16.703Z,0.00
2019-04-01T02:28:16.692Z,0.00
2019-04-01T02:29:16.715Z,0.00
2019-04-01T02:30:16.670Z,0.00
2019-04-01T02:31:16.642Z,0.00
2019-04-01T02:32:16.642Z,0.00
2019-04-01T02:33:16.648Z,0.00
2019-04-01T02:34:16.632Z,0.00
2019-04-01T02:35:16.644Z,0.00
2019-04-01T02:36:16.687Z,0.00
2019-04-01T02:37:16.585Z,0.00
2019-04-01T02:38:16.570Z,0.00
2019-04-01T02:39:16.580Z,0.00
2019-04-01T02:40:16.584Z,0.00
2019-04-01T02:41:16.545Z,0.00
2019-04-01T02:42:16.550Z,0.00
2019-04-01T02:43:16.516Z,0.00
2019-04-01T02:44:16.509Z,0.00
2019-04-01T02:45:16.559Z,0.00
2019-04-01T02:46:16.520Z,0.00
2019-04-01T02:47:16.488Z,0.00
2019-04-01T02:48:16.472Z,0.00
2019-04-01T02:49:16.463Z,0.00
2019-04-01T02:50:16.434Z,0.00
2019-04-01T02:51:16.447Z,0.00
2019-04-01T02:52:16.467Z,0.00
2019-04-01T02:53:16.418Z,0.00
2019-04-01T02:54:16.407Z,0.00
2019-04-01T02:55:16.420Z,0.00
2019-04-01T02:56:16.389Z,0.00
2019-04-01T02:57:16.363Z,0.00
2019-04-01T02:58:16.394Z,0.00
2019-04-01T02:59:16.357Z,0.00
2019-04-01T03:00:16.351Z,0.00
2019-04-01T03:01:16.329Z,0.00
2019-04-01T03:02:16.313Z,0.00
2019-04-01T03:03:16.307Z,0.00
2019-04-01T03:04:16.320Z,0.00
2019-04-01T03:05:16.294Z,0.00
2019-04-01T03:06:16.283Z,0.00
2019-04-01T03:07:16.262Z,0.00
2019-04-01T03:08:16.350Z,0.00
2019-04-01T03:09:16.247Z,0.00
2019-04-01T03:10:16.246Z,0.00
2019-04-01T03:11:16.387Z,0.00
2019-04-01T03:12:16.218Z,0.00
2019-04-01T03:13:16.198Z,0.00
2019-04-01T03:14:16.184Z,0.00
2019-04-01T03:15:16.185Z,0.00
2019-04-01T03:16:16.186Z,0.00
2019-04-01T03:17:16.150Z,0.00
2019-04-01T03:18:16.165Z,0.00
2019-04-01T03:19:16.139Z,0.00
2019-04-01T03:20:16.119Z,0.00
2019-04-01T03:21:16.137Z,0.00
2019-04-01T03:22:16.118Z,0.00
2019-04-01T03:23:16.099Z,0.00
2019-04-01T03:24:16.074Z,0.00
2019-04-01T03:25:16.064Z,0.00
2019-04-01T03:26:16.089Z,0.00
2019-04-01T03:27:17.514Z,0.00
2019-04-01T03:28:16.062Z,0.00
2019-04-01T03:29:16.025Z,0.00
2019-04-01T03:30:16.014Z,0.00
2019-04-01T03:31:16.012Z,0.00
2019-04-01T03:32:16.021Z,0.00
2019-04-01T03:33:16.001Z,0.00
2019-04-01T03:34:15.960Z,0.00
2019-04-01T03:35:15.958Z,0.00
2019-04-01T03:36:15.951Z,0.00
2019-04-01T03:37:15.931Z,0.00
2019-04-01T03:38:15.945Z,0.00
2019-04-01T03:39:15.925Z,0.00
2019-04-01T03:40:15.937Z,0.00
2019-04-01T03:41:15.902Z,0.00
2019-04-01T03:42:15.978Z,0.00
2019-04-01T03:43:15.890Z,0.00
2019-04-01T03:44:15.867Z,0.00
2019-04-01T03:45:15.856Z,0.00
2019-04-01T03:46:15.839Z,0.00
2019-04-01T03:47:15.836Z,0.00
2019-04-01T03:48:15.807Z,0.00
2019-04-01T03:49:15.816Z,0.00
2019-04-01T03:50:15.804Z,0.00
2019-04-01T03:51:15.814Z,0.00
2019-04-01T03:52:15.780Z,0.00
2019-04-01T03:53:15.806Z,0.00
2019-04-01T03:54:15.767Z,0.00
2019-04-01T03:55:15.755Z,0.00
2019-04-01T03:56:15.726Z,0.00
2019-04-01T03:57:15.733Z,0.00
2019-04-01T03:58:15.797Z,0.00
2019-04-01T03:59:15.738Z,0.00
2019-04-01T04:00:15.684Z,0.00
2019-04-01T04:01:15.697Z,0.00
2019-04-01T04:02:15.665Z,0.00
2019-04-01T04:03:15.683Z,0.00
2019-04-01T04:04:15.717Z,0.00
2019-04-01T04:05:15.641Z,0.00
2019-04-01T04:06:15.617Z,0.00
2019-04-01T04:07:15.607Z,4.00
2019-04-01T04:08:15.598Z,0.00
2019-04-01T04:09:15.590Z,0.00
2019-04-01T04:10:15.630Z,4.00
2019-04-01T04:11:15.570Z,4.00
2019-04-01T04:12:15.570Z,4.00
2019-04-01T04:13:15.572Z,8.00
2019-04-01T04:14:15.553Z,4.00
2019-04-01T04:15:15.540Z,4.00
2019-04-01T04:16:15.518Z,8.00
2019-04-01T04:17:15.504Z,8.00
2019-04-01T04:18:15.501Z,12.00
2019-04-01T04:19:15.495Z,12.00
2019-04-01T04:20:15.489Z,12.00
2019-04-01T04:21:15.461Z,16.00
2019-04-01T04:22:15.449Z,20.00
2019-04-01T04:23:15.453Z,20.00
2019-04-01T04:24:15.468Z,28.00
2019-04-01T04:25:15.420Z,32.00
2019-04-01T04:26:15.425Z,40.00
2019-04-01T04:27:15.403Z,44.00
2019-04-01T04:28:15.389Z,48.00
2019-04-01T04:29:15.376Z,60.00
2019-04-01T04:30:15.369Z,68.00
2019-04-01T04:31:15.381Z,76.00
2019-04-01T04:32:15.365Z,88.00
2019-04-01T04:33:15.334Z,100.00
2019-04-01T04:34:15.340Z,112.00
2019-04-01T04:35:15.312Z,128.00
2019-04-01T04:36:15.347Z,148.00
2019-04-01T04:37:15.310Z,160.00
2019-04-01T04:38:15.292Z,180.00
2019-04-01T04:39:15.263Z,200.00
2019-04-01T04:40:15.249Z,224.00
2019-04-01T04:41:15.242Z,248.00
2019-04-01T04:42:15.263Z,272.00
2019-04-01T04:43:15.260Z,296.00
2019-04-01T04:44:15.219Z,324.00
2019-04-01T04:45:15.206Z,356.00
2019-04-01T04:46:15.186Z,388.00
2019-04-01T04:47:15.193Z,420.00
2019-04-01T04:48:15.206Z,456.00
2019-04-01T04:49:15.163Z,488.00
2019-04-01T04:50:15.165Z,524.00
2019-04-01T04:51:15.155Z,560.00
2019-04-01T04:52:15.140Z,600.00
2019-04-01T04:53:15.107Z,644.00
2019-04-01T04:54:15.133Z,680.00
2019-04-01T04:55:15.089Z,728.00
2019-04-01T04:56:15.095Z,772.00
2019-04-01T04:57:15.115Z,824.00
2019-04-01T04:58:15.066Z,880.00
2019-04-01T04:59:15.056Z,940.00
2019-04-01T05:00:15.047Z,1008.00
2019-04-01T05:01:15.026Z,1072.00
2019-04-01T05:02:15.023Z,1136.00
2019-04-01T05:03:15.038Z,1204.00
2019-04-01T05:04:14.992Z,1284.00
2019-04-01T05:05:14.990Z,1368.00
2019-04-01T05:06:14.999Z,1452.00
2019-04-01T05:07:14.996Z,1528.00
2019-04-01T05:08:14.991Z,1600.00
2019-04-01T05:09:14.951Z,1676.00
2019-04-01T05:10:14.947Z,1756.00
2019-04-01T05:11:14.968Z,1884.00
2019-04-01T05:12:14.923Z,2092.00
2019-04-01T05:13:14.911Z,2292.00
2019-04-01T05:14:14.916Z,2436.00
2019-04-01T05:15:14.887Z,2532.00
2019-04-01T05:16:14.873Z,2664.00
2019-04-01T05:17:14.863Z,2804.00
2019-04-01T05:18:14.839Z,2892.00
2019-04-01T05:19:14.862Z,2820.00
2019-04-01T05:20:16.489Z,2716.00
2019-04-01T05:21:14.814Z,2740.00
2019-04-01T05:22:14.804Z,2808.00
2019-04-01T05:23:14.805Z,2892.00
2019-04-01T05:24:14.780Z,2980.00
2019-04-01T05:25:14.792Z,3088.00
2019-04-01T05:26:14.766Z,3208.00
2019-04-01T05:27:14.755Z,3592.00
2019-04-01T05:28:14.747Z,3968.00
2019-04-01T05:29:14.766Z,4328.00
2019-04-01T05:30:14.726Z,4680.00
2019-04-01T05:31:14.781Z,4968.00
2019-04-01T05:32:14.688Z,5032.00
2019-04-01T05:33:14.682Z,4888.00
2019-04-01T05:34:14.676Z,4180.00
2019-04-01T05:35:14.687Z,5100.00
2019-04-01T05:36:14.657Z,5016.00
2019-04-01T05:37:14.645Z,4192.00
2019-04-01T05:38:14.647Z,3912.00
2019-04-01T05:39:14.648Z,4012.00
2019-04-01T05:40:14.635Z,4108.00
2019-04-01T05:41:14.608Z,4148.00
2019-04-01T05:42:14.578Z,4428.00
2019-04-01T05:43:14.566Z,4476.00
2019-04-01T05:44:14.557Z,4836.00
2019-04-01T05:45:14.571Z,5016.00
2019-04-01T05:46:14.557Z,5768.00
2019-04-01T05:47:14.540Z,7228.00
2019-04-01T05:48:14.531Z,8816.00
2019-04-01T05:49:14.510Z,9548.00
2019-04-01T05:50:14.506Z,9640.00
2019-04-01T05:51:14.489Z,10152.00
2019-04-01T05:52:14.479Z,11036.00
2019-04-01T05:53:14.474Z,11340.00
2019-04-01T05:54:14.450Z,11608.00
2019-04-01T05:55:14.471Z,12008.00
2019-04-01T05:56:14.465Z,12832.00
2019-04-01T05:57:14.427Z,12768.00
2019-04-01T05:58:14.411Z,13280.00
2019-04-01T05:59:14.421Z,13696.00
2019-04-01T06:00:14.392Z,13312.00
2019-04-01T06:01:14.397Z,13728.00
2019-04-01T06:02:14.361Z,13952.00
2019-04-01T06:03:14.356Z,14240.00
2019-04-01T06:04:14.338Z,15328.00
2019-04-01T06:05:14.367Z,15648.00
2019-04-01T06:06:14.330Z,16128.00
2019-04-01T06:07:14.312Z,16448.00
2019-04-01T06:08:14.293Z,16160.00
2019-04-01T06:09:14.310Z,16096.00
2019-04-01T06:10:14.286Z,16928.00
2019-04-01T06:11:14.292Z,16672.00
2019-04-01T06:12:14.285Z,16800.00
2019-04-01T06:13:14.255Z,16768.00
2019-04-01T06:14:14.225Z,17568.00
2019-04-01T06:15:14.212Z,18336.00
2019-04-01T06:16:14.237Z,18464.00
2019-04-01T06:17:14.192Z,19072.00
2019-04-01T06:18:14.190Z,19584.00
2019-04-01T06:19:14.200Z,18848.00
2019-04-01T06:20:14.168Z,19136.00
2019-04-01T06:21:14.155Z,19200.00
2019-04-01T06:22:14.175Z,19712.00
2019-04-01T06:23:14.137Z,19328.00
2019-04-01T06:24:14.129Z,18880.00
2019-04-01T06:25:14.137Z,18944.00
2019-04-01T06:26:14.094Z,18944.00
2019-04-01T06:27:14.098Z,17632.00
2019-04-01T06:28:14.074Z,13576.00
2019-04-01T06:29:14.056Z,9400.00
2019-04-01T06:30:14.058Z,8668.00
2019-04-01T06:31:14.048Z,8628.00
2019-04-01T06:32:14.075Z,8672.00
2019-04-01T06:33:14.035Z,8756.00
2019-04-01T06:34:14.012Z,8844.00
2019-04-01T06:35:14.007Z,8944.00
2019-04-01T06:36:13.985Z,9052.00
2019-04-01T06:37:13.978Z,9168.00
2019-04-01T06:38:13.996Z,9280.00
2019-04-01T06:39:13.982Z,9416.00
2019-04-01T06:40:13.941Z,9548.00
2019-04-01T06:41:13.924Z,9692.00
2019-04-01T06:42:13.925Z,9824.00
2019-04-01T06:43:13.942Z,10004.00
2019-04-01T06:44:13.911Z,10324.00
2019-04-01T06:45:13.975Z,11644.00
2019-04-01T06:46:13.873Z,15088.00
2019-04-01T06:47:13.882Z,23360.00
2019-04-01T06:48:13.889Z,19232.00
2019-04-01T06:49:13.838Z,12672.00
2019-04-01T06:50:13.839Z,11800.00
2019-04-01T06:51:13.835Z,11612.00
2019-04-01T06:52:13.818Z,11444.00
2019-04-01T06:53:13.825Z,11384.00
2019-04-01T06:54:13.812Z,12144.00
2019-04-01T06:55:13.811Z,12376.00
2019-04-01T06:56:13.772Z,17248.00
2019-04-01T06:57:13.767Z,16832.00
2019-04-01T06:58:13.746Z,14464.00
2019-04-01T06:59:13.760Z,19168.00
2019-04-01T07:00:13.720Z,19232.00
2019-04-01T07:01:13.710Z,19008.00
2019-04-01T07:02:13.713Z,24832.00
2019-04-01T07:03:13.790Z,33600.00
2019-04-01T07:04:13.698Z,40224.00
2019-04-01T07:05:13.692Z,41696.00
2019-04-01T07:06:13.672Z,40992.00
2019-04-01T07:07:19.384Z,40352.00
2019-04-01T07:08:14.633Z,39040.00
2019-04-01T07:09:13.670Z,37120.00
2019-04-01T07:10:13.627Z,39584.00
2019-04-01T07:11:13.610Z,44672.00
2019-04-01T07:12:13.591Z,44544.00
2019-04-01T07:13:13.573Z,44192.00
2019-04-01T07:14:13.593Z,43712.00
2019-04-01T07:15:13.586Z,42880.00
2019-04-01T07:16:15.815Z,42656.00
2019-04-01T07:17:13.538Z,43904.00
2019-04-01T07:18:13.521Z,43776.00
2019-04-01T07:19:13.536Z,44640.00
2019-04-01T07:20:13.518Z,44256.00
2019-04-01T07:21:13.488Z,43424.00
2019-04-01T07:22:13.492Z,44416.00
2019-04-01T07:23:13.503Z,44992.00
2019-04-01T07:24:13.483Z,34112.00
2019-04-01T07:25:13.452Z,20960.00
2019-04-01T07:26:13.460Z,18112.00
2019-04-01T07:27:13.450Z,17728.00
2019-04-01T07:28:13.440Z,17536.00
2019-04-01T07:29:13.412Z,17440.00
2019-04-01T07:30:13.409Z,17568.00
2019-04-01T07:31:13.380Z,17664.00
2019-04-01T07:32:14.636Z,17696.00
2019-04-01T07:33:13.370Z,17696.00
2019-04-01T07:34:13.380Z,17888.00
2019-04-01T07:35:13.338Z,18272.00
2019-04-01T07:36:13.325Z,18336.00
2019-04-01T07:37:13.324Z,18496.00
2019-04-01T07:38:13.330Z,18208.00
2019-04-01T07:39:13.297Z,18144.00
2019-04-01T07:40:14.085Z,18304.00
2019-04-01T07:41:13.270Z,18496.00
2019-04-01T07:42:13.287Z,18688.00
2019-04-01T07:43:14.955Z,18784.00
2019-04-01T07:44:13.259Z,18880.00
2019-04-01T07:45:13.221Z,19040.00
2019-04-01T07:46:13.216Z,19264.00
2019-04-01T07:47:13.223Z,19360.00
2019-04-01T07:48:13.228Z,19232.00
2019-04-01T07:49:13.233Z,19456.00
2019-04-01T07:50:13.160Z,19712.00
2019-04-01T07:51:13.181Z,19712.00
2019-04-01T07:52:13.146Z,19744.00
2019-04-01T07:53:13.169Z,19936.00
2019-04-01T07:54:13.173Z,20288.00
2019-04-01T07:55:13.119Z,20192.00
2019-04-01T07:56:13.115Z,19936.00
2019-04-01T07:57:13.106Z,19680.00
2019-04-01T07:58:13.080Z,19360.00
2019-04-01T07:59:13.099Z,18976.00
2019-04-01T08:00:13.088Z,18784.00
2019-04-01T08:01:13.058Z,18336.00
2019-04-01T08:02:13.033Z,17696.00
2019-04-01T08:03:13.027Z,17632.00
2019-04-01T08:04:13.020Z,17632.00
2019-04-01T08:05:13.030Z,17632.00
2019-04-01T08:06:13.004Z,17728.00
2019-04-01T08:07:13.618Z,17760.00
2019-04-01T08:08:12.975Z,17856.00
2019-04-01T08:09:12.972Z,17856.00
2019-04-01T08:10:12.964Z,17920.00
2019-04-01T08:11:12.992Z,17984.00
2019-04-01T08:12:12.977Z,18016.00
2019-04-01T08:13:12.920Z,18016.00
2019-04-01T08:14:12.976Z,18080.00
2019-04-01T08:15:12.917Z,18112.00
2019-04-01T08:16:12.920Z,18176.00
2019-04-01T08:17:12.911Z,18240.00
2019-04-01T08:18:12.861Z,18336.00
2019-04-01T08:19:12.866Z,18400.00
2019-04-01T08:20:12.842Z,18464.00
2019-04-01T08:21:12.835Z,18496.00
2019-04-01T08:22:12.847Z,18592.00
2019-04-01T08:23:12.808Z,18752.00
2019-04-01T08:24:12.786Z,18752.00
2019-04-01T08:25:12.770Z,18848.00
2019-04-01T08:26:12.792Z,18880.00
2019-04-01T08:27:12.765Z,18976.00
2019-04-01T08:28:12.771Z,18944.00
2019-04-01T08:29:12.755Z,19040.00
2019-04-01T08:30:12.804Z,19104.00
2019-04-01T08:31:13.480Z,19104.00
2019-04-01T08:32:13.985Z,19136.00
2019-04-01T08:33:12.717Z,19232.00
2019-04-01T08:34:12.688Z,19264.00
2019-04-01T08:35:12.698Z,19392.00
2019-04-01T08:36:12.661Z,19488.00
2019-04-01T08:37:12.655Z,19648.00
2019-04-01T08:38:12.660Z,21600.00
2019-04-01T08:39:12.638Z,24384.00
2019-04-01T08:40:12.609Z,26688.00
2019-04-01T08:41:12.615Z,27808.00
2019-04-01T08:42:12.607Z,27808.00
2019-04-01T08:43:12.585Z,28384.00
2019-04-01T08:44:12.576Z,29280.00
2019-04-01T08:45:12.563Z,29792.00
2019-04-01T08:46:12.549Z,29632.00
2019-04-01T08:47:12.557Z,29600.00
2019-04-01T08:48:12.547Z,29472.00
2019-04-01T08:49:12.541Z,29568.00
2019-04-01T08:50:12.509Z,29312.00
2019-04-01T08:51:12.525Z,28928.00
2019-04-01T08:52:12.508Z,28864.00
2019-04-01T08:53:12.471Z,29152.00
2019-04-01T08:54:12.469Z,29152.00
2019-04-01T08:55:12.454Z,29280.00
2019-04-01T08:56:12.468Z,29792.00
2019-04-01T08:57:12.435Z,30496.00
2019-04-01T08:58:12.426Z,30432.00
2019-04-01T08:59:12.398Z,30240.00
2019-04-01T09:00:12.394Z,29792.00
2019-04-01T09:01:12.380Z,29728.00
2019-04-01T09:02:18.027Z,30176.00
2019-04-01T09:03:13.393Z,31232.00
2019-04-01T09:04:12.356Z,31744.00
2019-04-01T09:05:12.339Z,32416.00
2019-04-01T09:06:12.465Z,33376.00
2019-04-01T09:07:12.324Z,33760.00
2019-04-01T09:08:12.318Z,33472.00
2019-04-01T09:09:12.345Z,33696.00
2019-04-01T09:10:12.282Z,33952.00
2019-04-01T09:11:12.274Z,32928.00
2019-04-01T09:12:12.288Z,32256.00
2019-04-01T09:13:12.247Z,32320.00
2019-04-01T09:14:12.275Z,32128.00
2019-04-01T09:15:12.339Z,32032.00
2019-04-01T09:16:12.226Z,32096.00
2019-04-01T09:17:12.275Z,31136.00
2019-04-01T09:18:12.190Z,30944.00
2019-04-01T09:19:12.191Z,32288.00
2019-04-01T09:20:12.189Z,33920.00
2019-04-01T09:21:12.186Z,33856.00
2019-04-01T09:22:12.156Z,33056.00
2019-04-01T09:23:12.153Z,33088.00
2019-04-01T09:24:12.133Z,32864.00
2019-04-01T09:25:12.126Z,31968.00
2019-04-01T09:26:12.122Z,31744.00
2019-04-01T09:27:12.119Z,31584.00
2019-04-01T09:28:12.135Z,31424.00
2019-04-01T09:29:12.089Z,31552.00
2019-04-01T09:30:12.074Z,32064.00
2019-04-01T09:31:12.073Z,32288.00
2019-04-01T09:32:12.056Z,32128.00
2019-04-01T09:33:12.040Z,32064.00
2019-04-01T09:34:12.053Z,31136.00
2019-04-01T09:35:12.052Z,31072.00
2019-04-01T09:36:12.003Z,32768.00
2019-04-01T09:37:12.000Z,32096.00
2019-04-01T09:38:12.007Z,30272.00
2019-04-01T09:39:12.037Z,25216.00
2019-04-01T09:40:11.999Z,22592.00
2019-04-01T09:41:13.531Z,22560.00
2019-04-01T09:42:11.943Z,22560.00
2019-04-01T09:43:14.094Z,22624.00
2019-04-01T09:44:11.926Z,22752.00
2019-04-01T09:45:11.932Z,22976.00
2019-04-01T09:46:11.907Z,26048.00
2019-04-01T09:47:11.908Z,26464.00
2019-04-01T09:48:11.914Z,26656.00
2019-04-01T09:49:11.878Z,35520.00
2019-04-01T09:50:11.871Z,33888.00
2019-04-01T09:51:11.856Z,29952.00
2019-04-01T09:52:11.863Z,28608.00
2019-04-01T09:53:11.839Z,27904.00
2019-04-01T09:54:11.809Z,27392.00
2019-04-01T09:55:11.827Z,27136.00
2019-04-01T09:56:11.800Z,26880.00
2019-04-01T09:57:18.056Z,26592.00
2019-04-01T09:58:12.780Z,26400.00
2019-04-01T09:59:11.769Z,26240.00
2019-04-01T10:00:11.820Z,26016.00
2019-04-01T10:01:11.768Z,25824.00
2019-04-01T10:02:11.734Z,25824.00
2019-04-01T10:03:11.796Z,25952.00
2019-04-01T10:04:11.706Z,25952.00
2019-04-01T10:05:11.718Z,25920.00
2019-04-01T10:06:11.703Z,25952.00
2019-04-01T10:07:11.686Z,26048.00
2019-04-01T10:08:11.668Z,26208.00
2019-04-01T10:09:11.654Z,26560.00
2019-04-01T10:10:11.673Z,27264.00
2019-04-01T10:11:12.744Z,39872.00
2019-04-01T10:12:11.643Z,79840.00
2019-04-01T10:13:11.639Z,90816.00
2019-04-01T10:14:11.604Z,91488.00
2019-04-01T10:15:11.665Z,89504.00
2019-04-01T10:16:11.579Z,91936.00
2019-04-01T10:17:11.593Z,89440.00
2019-04-01T10:18:11.612Z,90016.00
2019-04-01T10:19:11.639Z,92416.00
2019-04-01T10:20:11.547Z,93536.00
2019-04-01T10:21:11.567Z,94688.00
2019-04-01T10:22:11.546Z,90816.00
2019-04-01T10:23:11.501Z,90496.00
2019-04-01T10:24:11.498Z,84960.00
2019-04-01T10:25:11.503Z,86016.00
2019-04-01T10:26:11.473Z,87168.00
2019-04-01T10:27:11.465Z,88608.00
2019-04-01T10:28:11.477Z,92032.00
2019-04-01T10:29:11.489Z,88128.00
2019-04-01T10:30:11.446Z,86368.00
2019-04-01T10:31:11.434Z,84928.00
2019-04-01T10:32:11.416Z,84064.00
2019-04-01T10:33:11.464Z,85472.00
2019-04-01T10:34:11.437Z,85440.00
2019-04-01T10:35:11.386Z,89152.00
2019-04-01T10:36:11.369Z,91936.00
2019-04-01T10:37:11.360Z,95072.00
2019-04-01T10:38:11.361Z,95072.00
2019-04-01T10:39:11.365Z,97216.00
2019-04-01T10:40:11.356Z,95200.00
2019-04-01T10:41:11.321Z,91232.00
2019-04-01T10:42:11.318Z,94528.00
2019-04-01T10:43:11.341Z,95680.00
2019-04-01T10:44:11.294Z,95808.00
2019-04-01T10:45:11.290Z,95040.00
2019-04-01T10:46:12.381Z,95264.00
2019-04-01T10:47:11.330Z,95360.00
2019-04-01T10:48:11.243Z,95552.00
2019-04-01T10:49:11.351Z,95104.00
2019-04-01T10:50:11.300Z,93376.00
2019-04-01T10:51:11.223Z,94176.00
2019-04-01T10:52:11.259Z,94592.00
2019-04-01T10:53:11.242Z,94144.00
2019-04-01T10:54:11.265Z,93952.00
2019-04-01T10:55:11.184Z,93216.00
2019-04-01T10:56:11.231Z,92320.00
2019-04-01T10:57:11.249Z,93824.00
2019-04-01T10:58:11.140Z,94368.00
2019-04-01T10:59:11.176Z,95424.00
2019-04-01T11:00:11.205Z,94368.00
2019-04-01T11:01:11.155Z,95008.00
2019-04-01T11:02:11.143Z,95232.00
2019-04-01T11:03:11.113Z,96288.00
2019-04-01T11:04:11.135Z,95744.00
2019-04-01T11:05:11.187Z,92320.00
2019-04-01T11:06:11.145Z,92640.00
2019-04-01T11:07:11.138Z,92896.00
2019-04-01T11:08:11.100Z,94784.00
2019-04-01T11:09:11.042Z,95744.00
2019-04-01T11:10:11.843Z,96544.00
2019-04-01T11:11:11.020Z,97408.00
2019-04-01T11:12:11.033Z,97376.00
2019-04-01T11:13:10.994Z,95296.00
2019-04-01T11:14:10.988Z,92768.00
2019-04-01T11:15:10.979Z,91616.00
2019-04-01T11:16:10.958Z,93120.00
2019-04-01T11:17:11.000Z,95904.00
2019-04-01T11:18:12.022Z,95712.00
2019-04-01T11:19:10.928Z,95584.00
2019-04-01T11:20:10.927Z,94016.00
2019-04-01T11:21:10.903Z,93248.00
2019-04-01T11:22:10.898Z,92640.00
2019-04-01T11:23:10.913Z,92288.00
2019-04-01T11:24:10.885Z,93184.00
2019-04-01T11:25:10.882Z,93696.00
2019-04-01T11:26:11.124Z,91328.00
2019-04-01T11:27:10.840Z,88864.00
2019-04-01T11:28:10.970Z,89312.00
2019-04-01T11:29:10.833Z,93120.00
2019-04-01T11:30:13.736Z,94080.00
2019-04-01T11:31:10.835Z,95584.00
2019-04-01T11:32:13.343Z,94304.00
2019-04-01T11:33:10.822Z,93920.00
2019-04-01T11:34:10.791Z,93920.00
2019-04-01T11:35:10.795Z,93184.00
2019-04-01T11:36:10.792Z,92928.00
2019-04-01T11:37:10.775Z,93120.00
2019-04-01T11:38:10.782Z,92288.00
2019-04-01T11:39:10.789Z,93152.00
2019-04-01T11:40:12.219Z,92736.00
2019-04-01T11:41:10.696Z,91936.00
2019-04-01T11:42:10.703Z,89920.00
2019-04-01T11:43:10.730Z,92448.00
2019-04-01T11:44:10.723Z,93728.00
2019-04-01T11:45:10.696Z,92352.00
2019-04-01T11:46:12.493Z,93024.00
2019-04-01T11:47:10.672Z,91136.00
2019-04-01T11:48:10.686Z,90080.00
2019-04-01T11:49:10.639Z,86848.00
2019-04-01T11:50:10.629Z,82208.00
2019-04-01T11:51:10.585Z,81760.00
2019-04-01T11:52:10.606Z,84832.00
2019-04-01T11:53:10.581Z,85568.00
2019-04-01T11:54:10.684Z,84576.00
2019-04-01T11:55:10.563Z,84320.00
2019-04-01T11:56:10.912Z,85824.00
2019-04-01T11:57:11.081Z,88128.00
2019-04-01T11:58:10.519Z,85856.00
2019-04-01T11:59:10.526Z,85088.00
2019-04-01T12:00:12.680Z,86432.00
2019-04-01T12:01:10.504Z,88640.00
2019-04-01T12:02:10.484Z,89632.00
2019-04-01T12:03:10.492Z,87456.00
2019-04-01T12:04:10.453Z,83776.00
2019-04-01T12:05:10.476Z,83616.00
2019-04-01T12:06:10.450Z,84640.00
2019-04-01T12:07:10.434Z,86048.00
2019-04-01T12:08:10.428Z,85664.00
2019-04-01T12:09:10.416Z,84416.00
2019-04-01T12:10:10.410Z,84384.00
2019-04-01T12:11:10.411Z,84352.00
2019-04-01T12:12:22.946Z,83936.00
2019-04-01T12:13:11.358Z,82880.00
2019-04-01T12:14:10.365Z,82880.00
2019-04-01T12:15:12.405Z,80960.00
2019-04-01T12:16:10.338Z,75264.00
2019-04-01T12:17:10.365Z,68000.00
2019-04-01T12:18:10.324Z,57312.00
2019-04-01T12:19:10.314Z,28672.00